Hlavní strana
METAR-TAF:

METAR-TAF

Letiště :

Soyo, Angola

zeměpisná šířka: 6-8-28S, zeměpisná délka: 12-22-19E, výška: 5 m

Aktuální stav počasí

Zpráva byla vytvořena před 14 hodinami a 20 minutami, v 16:00 UTC
Západní vítr 8 kt
Teplota
Tlak
Viditelnost: 8000 m
Polojasno ve výšce 1200 ft

METAR: FNSO 151600Z 28008KT 8000 SCT012 ///// Q////

Čas: 07:20 (06:20 UTC)

Předpověď počasí

Zpráva byla vytvořena před 7 hodinami a 50 minutami, v 22:30 UTC
Předpověď platná od 16 v 00 UTC do 16 v 12 UTC
Jižní vítr 5 kt
Viditelnost: 7000 m
Polojasno ve výšce 1600 ft
Dočasný
od 16 v 07 UTC do 16 v 12 UTC
vítr z různých směrů 2 kt
Viditelnost: 5000 m
Oblačno až skoro zataženo ve výšce 1800 ft
bouřka, slabý déšť, mrholení

TAF: FNSO 152230Z 1600/1612 19005KT 7000 SCT016 TEMPO 1607/1612 VRB02KT 5000 -TSRADZ BKN018

Stav a předpovědi počasí z více než 4 000 letišť (zprávy METAR a TAF).

Červené a žluté tečky na mapě představují dostupné meteorologické stanice.

Když kurzor umístíte na tečku, zobrazí se název stanice.

Pak kliknutím zobrazíte stav a předpověď počasí.

Chcete-li změnit mapu, kliknutím na zelené tlačítko se znaménkem +mapu přiblížíte, kliknutím na zelené tlačítko se znaménkem – mapu oddálíte a kliknutím na zelené šipky přejdete na sousední mapy.


METAR-TAF: